createdAt,value
2019-04-29T00:12:10.299Z,22.40
2019-04-29T00:27:17.916Z,24.10
2019-04-29T00:42:35.015Z,20.67
2019-04-29T00:57:42.610Z,20.67
2019-04-29T01:12:50.146Z,19.57
2019-04-29T01:28:07.670Z,21.37
2019-04-29T01:43:15.159Z,21.40
2019-04-29T01:58:22.971Z,21.55
2019-04-29T02:13:30.455Z,20.93
2019-04-29T02:28:37.950Z,24.07
2019-04-29T02:43:47.007Z,25.03
2019-04-29T02:59:00.725Z,22.57
2019-04-29T03:14:08.235Z,21.50
2019-04-29T03:29:25.415Z,21.80
2019-04-29T03:44:32.932Z,20.33
2019-04-29T03:59:40.712Z,25.32
2019-04-29T04:14:48.203Z,28.00
2019-04-29T04:29:55.691Z,29.40
2019-04-29T04:45:03.301Z,23.03
2019-04-29T05:00:20.003Z,23.26
2019-04-29T05:15:26.052Z,26.13
2019-04-29T05:30:33.563Z,28.07
2019-04-29T05:45:51.433Z,33.43
2019-04-29T06:01:03.040Z,24.57
2019-04-29T06:16:10.562Z,28.57
2019-04-29T06:31:18.368Z,24.57
2019-04-29T06:46:25.845Z,26.23
2019-04-29T07:01:37.570Z,25.77
2019-04-29T07:16:42.532Z,28.33
2019-04-29T07:31:50.002Z,30.13
2019-04-29T07:47:01.960Z,36.70
2019-04-29T08:02:06.667Z,38.00
2019-04-29T08:17:14.158Z,30.50
2019-04-29T08:32:21.633Z,28.73
2019-04-29T08:47:32.446Z,31.97
2019-04-29T09:02:41.496Z,29.53
2019-04-29T09:17:49.068Z,35.17
2019-04-29T09:32:56.616Z,29.00
2019-04-29T09:48:04.135Z,29.07
2019-04-29T10:03:29.330Z,36.97
2019-04-29T10:18:45.152Z,26.83
2019-04-29T10:33:55.045Z,26.27
2019-04-29T10:49:10.134Z,33.27
2019-04-29T11:04:17.876Z,23.73
2019-04-29T11:19:25.598Z,20.37
2019-04-29T11:34:53.429Z,18.70
2019-04-29T11:50:07.538Z,17.10
2019-04-29T12:05:40.265Z,10.87
2019-04-29T12:20:58.220Z,13.27
2019-04-29T12:36:11.414Z,7.67
2019-04-29T12:51:19.472Z,13.67
2019-04-29T13:06:39.487Z,12.40
2019-04-29T13:21:43.142Z,8.75
2019-04-29T13:37:06.058Z,12.23
2019-04-29T13:52:00.447Z,10.47
2019-04-29T14:07:07.924Z,10.17
2019-04-29T14:22:22.334Z,8.87
2019-04-29T14:37:25.465Z,8.80
2019-04-29T14:52:33.183Z,8.40
2019-04-29T15:07:40.697Z,7.40
2019-04-29T15:22:49.548Z,7.78
2019-04-29T15:37:57.053Z,7.13
2019-04-29T15:53:04.680Z,7.07
2019-04-29T16:08:38.447Z,5.75
2019-04-29T16:23:46.879Z,9.97
2019-04-29T16:38:54.382Z,7.97
2019-04-29T16:54:02.280Z,6.90
2019-04-29T17:09:27.819Z,10.40
2019-04-29T17:24:35.334Z,7.33
2019-04-29T17:39:42.809Z,8.27
2019-04-29T17:54:52.683Z,8.83
2019-04-29T18:10:24.358Z,7.27
2019-04-29T18:25:48.193Z,5.47
2019-04-29T18:40:55.994Z,7.97
2019-04-29T18:56:05.107Z,7.95
2019-04-29T19:11:12.453Z,10.80
2019-04-29T19:26:22.327Z,6.70
2019-04-29T19:41:29.104Z,8.10
2019-04-29T19:56:36.586Z,6.00
2019-04-29T20:11:45.857Z,7.37
2019-04-29T20:26:54.056Z,6.90
2019-04-29T20:42:06.459Z,8.83
2019-04-29T20:57:17.564Z,9.70
2019-04-29T21:12:48.166Z,7.77
2019-04-29T21:27:58.239Z,10.10
2019-04-29T21:43:13.647Z,17.83
2019-04-29T21:58:17.960Z,8.00
2019-04-29T22:13:25.208Z,13.47
2019-04-29T22:28:34.942Z,7.80
2019-04-29T22:43:50.837Z,13.30
2019-04-29T22:58:58.107Z,7.63
2019-04-29T23:14:09.830Z,10.17
2019-04-29T23:29:15.590Z,5.57
2019-04-29T23:44:26.083Z,13.40
2019-04-29T23:59:35.393Z,9.90
